createdAt,value
2018-04-07T00:02:23.445Z,4.88
2018-04-07T00:04:51.113Z,4.74
2018-04-07T00:07:18.838Z,4.55
2018-04-07T00:09:46.602Z,4.58
2018-04-07T00:12:14.309Z,4.47
2018-04-07T00:14:41.980Z,4.43
2018-04-07T00:17:09.661Z,4.35
2018-04-07T00:19:37.406Z,4.30
2018-04-07T00:22:05.096Z,4.27
2018-04-07T00:24:32.723Z,4.35
2018-04-07T00:27:00.448Z,4.39
2018-04-07T00:29:29.292Z,4.30
2018-04-07T00:31:56.903Z,4.25
2018-04-07T00:34:24.589Z,4.06
2018-04-07T00:36:52.285Z,3.90
2018-04-07T00:39:20.365Z,4.01
2018-04-07T00:41:47.980Z,4.05
2018-04-07T00:44:15.583Z,4.12
2018-04-07T00:46:43.256Z,4.18
2018-04-07T00:49:10.958Z,4.14
2018-04-07T00:51:38.636Z,4.02
2018-04-07T00:54:06.333Z,4.15
2018-04-07T00:56:33.939Z,4.21
2018-04-07T00:59:01.548Z,4.23
2018-04-07T01:01:29.169Z,4.21
2018-04-07T01:03:56.814Z,4.18
2018-04-07T01:06:24.450Z,4.23
2018-04-07T01:08:52.101Z,4.20
2018-04-07T01:11:19.718Z,3.95
2018-04-07T01:13:47.349Z,3.88
2018-04-07T01:16:14.989Z,3.88
2018-04-07T01:18:42.617Z,3.84
2018-04-07T01:21:10.204Z,3.79
2018-04-07T01:23:37.934Z,3.74
2018-04-07T01:26:05.677Z,3.81
2018-04-07T01:28:33.324Z,3.89
2018-04-07T01:31:00.909Z,3.95
2018-04-07T01:33:28.522Z,4.00
2018-04-07T01:35:57.342Z,3.98
2018-04-07T01:38:25.531Z,3.93
2018-04-07T01:40:53.308Z,3.97
2018-04-07T01:43:21.049Z,3.88
2018-04-07T01:45:48.929Z,3.70
2018-04-07T01:48:16.795Z,3.56
2018-04-07T01:50:44.381Z,3.60
2018-04-07T01:53:12.107Z,3.75
2018-04-07T01:55:39.772Z,3.89
2018-04-07T01:58:07.428Z,3.81
2018-04-07T02:00:35.082Z,3.60
2018-04-07T02:03:03.326Z,3.57
2018-04-07T02:05:31.038Z,3.59
2018-04-07T02:07:58.646Z,3.64
2018-04-07T02:10:26.360Z,3.65
2018-04-07T02:12:53.995Z,3.57
2018-04-07T02:15:21.644Z,3.66
2018-04-07T02:17:49.532Z,3.78
2018-04-07T02:20:17.177Z,3.83
2018-04-07T02:22:45.483Z,3.84
2018-04-07T02:25:13.707Z,3.64
2018-04-07T02:27:41.383Z,3.56
2018-04-07T02:30:09.092Z,3.41
2018-04-07T02:32:36.881Z,3.34
2018-04-07T02:35:04.513Z,3.23
2018-04-07T02:37:32.180Z,3.03
2018-04-07T02:39:59.847Z,2.91
2018-04-07T02:42:27.685Z,3.07
2018-04-07T02:44:55.269Z,3.16
2018-04-07T02:47:22.949Z,3.17
2018-04-07T02:49:51.008Z,3.16
2018-04-07T02:52:18.653Z,3.13
2018-04-07T02:54:46.258Z,3.21
2018-04-07T02:57:13.885Z,3.22
2018-04-07T02:59:41.527Z,3.23
2018-04-07T03:02:09.712Z,3.18
2018-04-07T03:04:38.049Z,3.15
2018-04-07T03:07:05.633Z,3.13
2018-04-07T03:09:33.241Z,3.15
2018-04-07T03:12:00.905Z,3.24
2018-04-07T03:14:28.529Z,3.23
2018-04-07T03:16:56.139Z,3.17
2018-04-07T03:19:23.819Z,3.14
2018-04-07T03:21:51.441Z,3.11
2018-04-07T03:24:19.067Z,3.18
2018-04-07T03:26:46.787Z,3.26
2018-04-07T03:29:14.459Z,3.30
2018-04-07T03:31:42.081Z,3.34
2018-04-07T03:34:09.703Z,3.22
2018-04-07T03:36:37.356Z,3.10
2018-04-07T03:39:05.021Z,3.00
2018-04-07T03:41:32.686Z,3.00
2018-04-07T03:44:00.333Z,3.03
2018-04-07T03:46:27.957Z,2.88
2018-04-07T03:48:55.743Z,2.97
2018-04-07T03:51:23.381Z,2.79
2018-04-07T03:53:51.016Z,2.81
2018-04-07T03:56:18.638Z,2.80
2018-04-07T03:58:46.506Z,2.69
2018-04-07T04:01:14.096Z,2.61
2018-04-07T04:03:41.917Z,2.72
2018-04-07T04:06:09.507Z,2.71
2018-04-07T04:08:37.244Z,2.66
2018-04-07T04:11:05.014Z,2.66
2018-04-07T04:13:33.217Z,2.61
2018-04-07T04:16:00.840Z,2.53
2018-04-07T04:18:28.497Z,2.49
2018-04-07T04:20:56.067Z,2.47
2018-04-07T04:23:23.699Z,2.52
2018-04-07T04:25:51.348Z,2.47
2018-04-07T04:28:19.011Z,2.31
2018-04-07T04:30:46.659Z,2.29
2018-04-07T04:33:14.261Z,2.39
2018-04-07T04:35:41.941Z,2.49
2018-04-07T04:38:09.560Z,2.40
2018-04-07T04:40:37.216Z,2.38
2018-04-07T04:43:04.868Z,2.44
2018-04-07T04:45:33.366Z,2.39
2018-04-07T04:48:01.267Z,2.33
2018-04-07T04:50:29.033Z,2.37
2018-04-07T04:52:56.682Z,2.43
2018-04-07T04:55:24.363Z,2.31
2018-04-07T04:57:52.007Z,2.46
2018-04-07T05:00:19.674Z,2.53
2018-04-07T05:02:47.334Z,2.61
2018-04-07T05:05:15.191Z,2.64
2018-04-07T05:07:42.826Z,2.74
2018-04-07T05:10:10.456Z,2.86
2018-04-07T05:12:38.355Z,3.01
2018-04-07T05:15:06.634Z,2.91
2018-04-07T05:17:34.275Z,3.82
2018-04-07T05:20:02.113Z,6.28
2018-04-07T05:22:30.594Z,8.80
2018-04-07T05:24:58.224Z,8.96
2018-04-07T05:27:26.073Z,9.77
2018-04-07T05:29:53.695Z,10.56
2018-04-07T05:32:21.528Z,10.74
2018-04-07T05:34:49.276Z,9.62
2018-04-07T05:37:17.191Z,8.12
2018-04-07T05:39:45.150Z,7.33
2018-04-07T05:42:13.019Z,6.81
2018-04-07T05:44:41.666Z,6.62
2018-04-07T05:47:09.312Z,6.47
2018-04-07T05:49:37.242Z,6.51
2018-04-07T05:52:05.334Z,6.77
2018-04-07T05:54:33.060Z,6.77
2018-04-07T05:57:00.671Z,6.45
2018-04-07T05:59:32.766Z,6.43
2018-04-07T06:02:00.710Z,6.66
2018-04-07T06:04:28.364Z,6.68
2018-04-07T06:06:56.141Z,6.85
2018-04-07T06:09:23.773Z,7.20
2018-04-07T06:11:51.405Z,7.13
2018-04-07T06:14:19.107Z,7.27
2018-04-07T06:16:46.835Z,7.73
2018-04-07T06:19:14.724Z,7.98
2018-04-07T06:21:42.378Z,8.18
2018-04-07T06:24:10.249Z,8.37
2018-04-07T06:26:37.891Z,8.27
2018-04-07T06:29:05.597Z,8.48
2018-04-07T06:31:33.536Z,8.72
2018-04-07T06:34:01.612Z,8.84
2018-04-07T06:36:29.216Z,9.11
2018-04-07T06:38:56.972Z,9.46
2018-04-07T06:41:24.671Z,9.49
2018-04-07T06:43:52.580Z,9.85
2018-04-07T06:46:20.318Z,9.86
2018-04-07T06:48:48.285Z,10.01
2018-04-07T06:51:16.178Z,10.41
2018-04-07T06:53:43.929Z,10.49
2018-04-07T06:56:11.590Z,10.86
2018-04-07T06:58:39.626Z,11.07
2018-04-07T07:01:07.360Z,11.15
2018-04-07T07:03:34.967Z,11.34
2018-04-07T07:06:02.758Z,11.41
2018-04-07T07:08:30.721Z,11.62
2018-04-07T07:10:58.313Z,11.60
2018-04-07T07:13:26.150Z,11.56
2018-04-07T07:15:54.050Z,11.70
2018-04-07T07:18:22.119Z,11.79
2018-04-07T07:20:50.850Z,11.46
2018-04-07T07:23:18.645Z,11.46
2018-04-07T07:25:46.669Z,11.65
2018-04-07T07:28:14.359Z,11.94
2018-04-07T07:30:43.309Z,12.38
2018-04-07T07:33:11.949Z,12.77
2018-04-07T07:35:40.542Z,12.95
2018-04-07T07:38:08.302Z,13.48
2018-04-07T07:40:36.074Z,13.50
2018-04-07T07:43:03.947Z,13.44
2018-04-07T07:45:31.820Z,13.82
2018-04-07T07:48:00.490Z,13.15
2018-04-07T07:50:29.966Z,13.49
2018-04-07T07:52:57.685Z,13.93
2018-04-07T07:55:26.529Z,13.92
2018-04-07T07:57:54.596Z,13.54
2018-04-07T08:00:24.772Z,13.74
2018-04-07T08:02:52.656Z,13.46
2018-04-07T08:05:20.324Z,12.94
2018-04-07T08:07:48.722Z,13.86
2018-04-07T08:10:17.334Z,14.17
2018-04-07T08:12:45.823Z,14.04
2018-04-07T08:15:13.568Z,13.34
2018-04-07T08:17:41.645Z,13.80
2018-04-07T08:20:09.349Z,14.36
2018-04-07T08:22:36.994Z,14.42
2018-04-07T08:25:04.620Z,13.96
2018-04-07T08:27:32.386Z,14.78
2018-04-07T08:30:02.951Z,15.13
2018-04-07T08:32:30.561Z,15.04
2018-04-07T08:34:58.203Z,15.03
2018-04-07T08:37:25.854Z,14.52
2018-04-07T08:39:53.448Z,14.73
2018-04-07T08:42:21.068Z,15.36
2018-04-07T08:44:48.750Z,15.27
2018-04-07T08:47:16.576Z,15.15
2018-04-07T08:49:44.243Z,14.92
2018-04-07T08:52:11.887Z,15.18
2018-04-07T08:54:39.605Z,15.58
2018-04-07T08:57:07.228Z,15.62
2018-04-07T08:59:34.996Z,16.09
2018-04-07T09:02:02.643Z,16.59
2018-04-07T09:04:31.107Z,15.82
2018-04-07T09:06:59.344Z,15.63
2018-04-07T09:09:27.009Z,16.54
2018-04-07T09:11:55.526Z,16.90
2018-04-07T09:14:23.268Z,16.21
2018-04-07T09:16:50.860Z,16.66
2018-04-07T09:19:18.539Z,17.05
2018-04-07T09:21:48.335Z,17.57
2018-04-07T09:24:15.949Z,18.08
2018-04-07T09:26:43.678Z,17.70
2018-04-07T09:29:11.383Z,17.71
2018-04-07T09:31:39.016Z,17.00
2018-04-07T09:34:06.668Z,17.60
2018-04-07T09:36:34.681Z,18.47
2018-04-07T09:39:03.556Z,17.87
2018-04-07T09:41:31.344Z,17.51
2018-04-07T09:43:59.006Z,17.70
2018-04-07T09:46:26.719Z,17.42
2018-04-07T09:48:54.401Z,17.65
2018-04-07T09:51:22.076Z,18.33
2018-04-07T09:53:49.677Z,18.61
2018-04-07T09:56:17.319Z,18.59
2018-04-07T09:58:45.124Z,18.79
2018-04-07T10:01:12.989Z,18.47
2018-04-07T10:03:40.632Z,18.67
2018-04-07T10:06:08.288Z,17.70
2018-04-07T10:08:35.974Z,18.13
2018-04-07T10:11:03.652Z,18.57
2018-04-07T10:13:31.321Z,19.20
2018-04-07T10:15:58.917Z,18.79
2018-04-07T10:18:26.569Z,18.07
2018-04-07T10:20:54.237Z,18.92
2018-04-07T10:23:22.579Z,18.93
2018-04-07T10:25:50.227Z,18.66
2018-04-07T10:28:17.922Z,18.86
2018-04-07T10:30:45.756Z,18.15
2018-04-07T10:33:13.366Z,18.66
2018-04-07T10:35:41.083Z,18.22
2018-04-07T10:38:08.717Z,18.78
2018-04-07T10:40:36.362Z,19.39
2018-04-07T10:43:04.073Z,19.57
2018-04-07T10:45:31.843Z,19.59
2018-04-07T10:47:59.554Z,19.05
2018-04-07T10:50:27.218Z,19.31
2018-04-07T10:52:54.880Z,19.12
2018-04-07T10:55:23.518Z,19.60
2018-04-07T10:57:51.268Z,19.80
2018-04-07T11:00:19.050Z,19.88
2018-04-07T11:02:46.797Z,20.61
2018-04-07T11:05:14.461Z,20.47
2018-04-07T11:07:42.054Z,20.82
2018-04-07T11:10:09.694Z,20.69
2018-04-07T11:12:37.450Z,20.61
2018-04-07T11:15:05.489Z,21.21
2018-04-07T11:17:33.182Z,20.64
2018-04-07T11:20:00.833Z,20.48
2018-04-07T11:22:28.456Z,21.13
2018-04-07T11:24:56.121Z,20.97
2018-04-07T11:27:23.801Z,21.27
2018-04-07T11:29:51.491Z,21.41
2018-04-07T11:32:19.142Z,21.85
2018-04-07T11:34:46.801Z,22.24
2018-04-07T11:37:14.464Z,20.83
2018-04-07T11:39:42.164Z,20.85
2018-04-07T11:42:09.752Z,21.27
2018-04-07T11:44:37.425Z,21.30
2018-04-07T11:47:05.078Z,21.32
2018-04-07T11:49:33.294Z,21.34
2018-04-07T11:52:00.905Z,20.82
2018-04-07T11:54:28.560Z,20.40
2018-04-07T11:56:56.184Z,21.18
2018-04-07T11:59:23.878Z,20.70
2018-04-07T12:01:51.485Z,21.15
2018-04-07T12:04:19.169Z,21.14
2018-04-07T12:06:46.877Z,20.54
2018-04-07T12:09:14.606Z,21.41
2018-04-07T12:11:42.465Z,21.30
2018-04-07T12:14:10.333Z,21.01
2018-04-07T12:16:38.251Z,20.22
2018-04-07T12:19:10.489Z,21.22
2018-04-07T12:21:40.404Z,21.06
2018-04-07T12:24:08.257Z,21.36
2018-04-07T12:26:36.235Z,20.68
2018-04-07T12:29:03.862Z,21.09
2018-04-07T12:31:32.402Z,21.64
2018-04-07T12:34:00.122Z,21.51
2018-04-07T12:36:27.880Z,21.04
2018-04-07T12:38:55.518Z,21.48
2018-04-07T12:41:23.262Z,21.67
2018-04-07T12:43:51.790Z,21.48
2018-04-07T12:46:19.449Z,21.63
2018-04-07T12:48:47.072Z,21.73
2018-04-07T12:51:16.136Z,21.16
2018-04-07T12:53:44.686Z,21.86
2018-04-07T12:56:12.379Z,21.32
2018-04-07T12:58:40.041Z,21.71
2018-04-07T13:01:07.741Z,21.06
2018-04-07T13:03:35.466Z,20.92
2018-04-07T13:06:03.130Z,21.14
2018-04-07T13:08:30.846Z,21.41
2018-04-07T13:10:58.865Z,21.34
2018-04-07T13:13:26.517Z,21.76
2018-04-07T13:15:54.394Z,21.48
2018-04-07T13:18:22.240Z,21.38
2018-04-07T13:20:50.914Z,21.28
2018-04-07T13:23:18.915Z,21.05
2018-04-07T13:25:46.641Z,21.07
2018-04-07T13:28:14.317Z,21.10
2018-04-07T13:30:41.997Z,20.92
2018-04-07T13:33:09.773Z,20.50
2018-04-07T13:35:37.415Z,20.80
2018-04-07T13:38:05.294Z,21.18
2018-04-07T13:40:33.194Z,20.85
2018-04-07T13:43:00.879Z,20.85
2018-04-07T13:45:28.634Z,20.74
2018-04-07T13:47:56.446Z,20.66
2018-04-07T13:50:24.129Z,20.81
2018-04-07T13:52:52.399Z,21.02
2018-04-07T13:55:20.032Z,20.94
2018-04-07T13:57:48.910Z,21.00
2018-04-07T14:00:16.809Z,21.22
2018-04-07T14:02:44.654Z,21.65
2018-04-07T14:05:12.544Z,20.55
2018-04-07T14:07:40.170Z,20.38
2018-04-07T14:10:07.820Z,20.17
2018-04-07T14:12:35.504Z,20.64
2018-04-07T14:15:03.113Z,20.68
2018-04-07T14:17:30.769Z,20.80
2018-04-07T14:19:58.522Z,20.83
2018-04-07T14:22:27.009Z,20.87
2018-04-07T14:24:54.884Z,21.35
2018-04-07T14:27:22.568Z,21.23
2018-04-07T14:29:50.608Z,21.25
2018-04-07T14:32:18.383Z,21.14
2018-04-07T14:34:46.008Z,20.95
2018-04-07T14:37:13.915Z,20.69
2018-04-07T14:39:41.594Z,20.72
2018-04-07T14:42:09.412Z,20.40
2018-04-07T14:44:37.097Z,20.52
2018-04-07T14:47:04.709Z,20.30
2018-04-07T14:49:32.633Z,20.32
2018-04-07T14:52:00.520Z,20.42
2018-04-07T14:54:28.720Z,20.70
2018-04-07T14:56:56.423Z,20.60
2018-04-07T14:59:24.073Z,20.66
2018-04-07T15:01:51.734Z,20.44
2018-04-07T15:04:20.310Z,20.34
2018-04-07T15:06:47.960Z,20.81
2018-04-07T15:09:15.596Z,20.17
2018-04-07T15:11:43.330Z,19.96
2018-04-07T15:14:11.198Z,20.19
2018-04-07T15:16:38.803Z,20.01
2018-04-07T15:19:06.519Z,19.86
2018-04-07T15:21:34.532Z,20.10
2018-04-07T15:24:02.203Z,19.94
2018-04-07T15:26:30.123Z,20.04
2018-04-07T15:28:59.373Z,19.91
2018-04-07T15:31:27.086Z,20.06
2018-04-07T15:33:54.937Z,19.99
2018-04-07T15:36:22.586Z,19.98
2018-04-07T15:38:51.688Z,20.00
2018-04-07T15:41:19.431Z,20.39
2018-04-07T15:43:47.342Z,20.00
2018-04-07T15:46:14.982Z,19.86
2018-04-07T15:48:42.729Z,19.65
2018-04-07T15:51:11.349Z,19.27
2018-04-07T15:53:39.124Z,19.05
2018-04-07T15:56:06.792Z,19.11
2018-04-07T15:58:34.640Z,18.79
2018-04-07T16:01:02.926Z,18.64
2018-04-07T16:03:31.815Z,18.67
2018-04-07T16:05:59.691Z,18.62
2018-04-07T16:08:27.541Z,18.45
2018-04-07T16:10:55.194Z,18.38
2018-04-07T16:13:22.984Z,18.39
2018-04-07T16:15:51.300Z,18.29
2018-04-07T16:18:19.645Z,18.21
2018-04-07T16:20:48.232Z,18.11
2018-04-07T16:23:16.252Z,18.14
2018-04-07T16:25:44.419Z,18.05
2018-04-07T16:28:12.989Z,18.05
2018-04-07T16:30:40.910Z,17.82
2018-04-07T16:33:08.950Z,17.86
2018-04-07T16:35:37.062Z,17.72
2018-04-07T16:38:05.222Z,17.78
2018-04-07T16:40:33.001Z,17.82
2018-04-07T16:43:01.477Z,17.66
2018-04-07T16:45:29.910Z,17.53
2018-04-07T16:47:57.627Z,17.44
2018-04-07T16:50:26.038Z,17.35
2018-04-07T16:52:54.036Z,17.14
2018-04-07T16:55:21.723Z,17.20
2018-04-07T16:57:49.464Z,17.12
2018-04-07T17:00:17.185Z,17.01
2018-04-07T17:02:45.155Z,17.08
2018-04-07T17:05:12.837Z,16.94
2018-04-07T17:07:40.532Z,16.87
2018-04-07T17:10:08.476Z,16.86
2018-04-07T17:12:37.322Z,16.66
2018-04-07T17:15:05.320Z,16.65
2018-04-07T17:17:32.996Z,16.63
2018-04-07T17:20:00.700Z,16.43
2018-04-07T17:22:28.344Z,16.33
2018-04-07T17:24:56.142Z,16.27
2018-04-07T17:27:23.837Z,16.20
2018-04-07T17:29:51.486Z,15.65
2018-04-07T17:32:19.437Z,15.68
2018-04-07T17:34:47.511Z,15.72
2018-04-07T17:37:15.647Z,15.57
2018-04-07T17:39:43.859Z,15.59
2018-04-07T17:42:12.136Z,15.39
2018-04-07T17:44:40.129Z,15.44
2018-04-07T17:47:09.119Z,15.17
2018-04-07T17:49:43.733Z,15.27
2018-04-07T17:52:05.855Z,14.90
2018-04-07T17:54:33.521Z,14.96
2018-04-07T17:57:01.410Z,14.78
2018-04-07T17:59:29.235Z,14.62
2018-04-07T18:01:56.964Z,13.86
2018-04-07T18:04:24.793Z,13.35
2018-04-07T18:06:52.862Z,13.40
2018-04-07T18:09:22.361Z,13.25
2018-04-07T18:11:50.022Z,13.11
2018-04-07T18:14:17.794Z,13.06
2018-04-07T18:16:45.464Z,12.78
2018-04-07T18:19:13.149Z,12.41
2018-04-07T18:21:41.733Z,12.44
2018-04-07T18:24:10.995Z,12.07
2018-04-07T18:26:39.067Z,12.20
2018-04-07T18:29:07.147Z,12.10
2018-04-07T18:31:36.333Z,12.18
2018-04-07T18:34:04.083Z,12.08
2018-04-07T18:36:31.960Z,12.34
2018-04-07T18:39:00.778Z,12.12
2018-04-07T18:41:28.533Z,11.54
2018-04-07T18:43:56.171Z,11.47
2018-04-07T18:46:24.046Z,11.59
2018-04-07T18:48:51.808Z,11.67
2018-04-07T18:51:19.830Z,12.03
2018-04-07T18:53:48.288Z,11.87
2018-04-07T18:56:16.157Z,11.67
2018-04-07T18:58:43.945Z,11.43
2018-04-07T19:01:12.754Z,11.47
2018-04-07T19:03:40.442Z,11.23
2018-04-07T19:06:09.246Z,11.25
2018-04-07T19:08:37.091Z,11.43
2018-04-07T19:11:05.083Z,11.13
2018-04-07T19:13:33.125Z,11.05
2018-04-07T19:16:01.069Z,10.87
2018-04-07T19:18:29.208Z,10.79
2018-04-07T19:20:57.367Z,10.68
2018-04-07T19:23:25.343Z,10.36
2018-04-07T19:25:53.234Z,10.81
2018-04-07T19:28:21.278Z,11.03
2018-04-07T19:30:49.395Z,10.83
2018-04-07T19:33:17.208Z,10.77
2018-04-07T19:35:45.560Z,10.76
2018-04-07T19:38:13.387Z,11.03
2018-04-07T19:40:41.194Z,10.88
2018-04-07T19:43:08.949Z,10.48
2018-04-07T19:45:36.636Z,10.59
2018-04-07T19:48:04.288Z,10.64
2018-04-07T19:50:32.084Z,10.77
2018-04-07T19:52:59.751Z,10.46
2018-04-07T19:55:27.440Z,10.28
2018-04-07T19:57:55.092Z,10.14
2018-04-07T20:00:24.018Z,10.06
2018-04-07T20:02:51.823Z,9.72
2018-04-07T20:05:19.475Z,9.66
2018-04-07T20:07:47.170Z,9.93
2018-04-07T20:10:14.847Z,9.92
2018-04-07T20:12:42.554Z,9.84
2018-04-07T20:15:10.259Z,9.62
2018-04-07T20:17:37.955Z,9.32
2018-04-07T20:20:05.702Z,9.23
2018-04-07T20:22:33.446Z,9.36
2018-04-07T20:25:01.052Z,9.44
2018-04-07T20:27:29.325Z,9.08
2018-04-07T20:29:56.945Z,9.28
2018-04-07T20:32:24.586Z,9.27
2018-04-07T20:34:52.345Z,9.19
2018-04-07T20:37:20.066Z,9.01
2018-04-07T20:39:47.792Z,8.85
2018-04-07T20:42:27.119Z,8.86
2018-04-07T20:44:54.795Z,9.09
2018-04-07T20:47:24.248Z,9.22
2018-04-07T20:49:51.977Z,9.31
2018-04-07T20:52:20.389Z,9.57
2018-04-07T20:54:48.114Z,9.46
2018-04-07T20:57:15.715Z,9.18
2018-04-07T20:59:43.374Z,8.78
2018-04-07T21:02:11.082Z,9.01
2018-04-07T21:04:38.742Z,9.10
2018-04-07T21:07:06.528Z,9.12
2018-04-07T21:09:34.177Z,9.03
2018-04-07T21:12:01.837Z,8.76
2018-04-07T21:14:29.455Z,8.98
2018-04-07T21:16:57.221Z,8.78
2018-04-07T21:19:24.887Z,8.72
2018-04-07T21:21:52.587Z,8.64
2018-04-07T21:24:21.204Z,8.62
2018-04-07T21:26:49.206Z,8.50
2018-04-07T21:29:17.316Z,8.35
2018-04-07T21:31:44.934Z,8.31
2018-04-07T21:34:12.523Z,8.16
2018-04-07T21:36:40.602Z,8.50
2018-04-07T21:39:08.411Z,8.48
2018-04-07T21:41:36.010Z,8.37
2018-04-07T21:44:03.913Z,8.43
2018-04-07T21:46:31.573Z,8.47
2018-04-07T21:48:59.272Z,8.60
2018-04-07T21:51:26.970Z,8.56
2018-04-07T21:53:55.124Z,8.29
2018-04-07T21:56:22.773Z,8.17
2018-04-07T21:58:50.430Z,8.06
2018-04-07T22:01:18.134Z,8.15
2018-04-07T22:03:46.291Z,8.22
2018-04-07T22:06:13.954Z,8.09
2018-04-07T22:08:41.697Z,7.98
2018-04-07T22:11:09.422Z,7.79
2018-04-07T22:13:37.054Z,7.79
2018-04-07T22:16:04.647Z,7.76
2018-04-07T22:18:32.323Z,7.66
2018-04-07T22:20:59.929Z,7.70
2018-04-07T22:23:27.545Z,7.82
2018-04-07T22:25:55.439Z,7.88
2018-04-07T22:28:23.075Z,8.06
2018-04-07T22:30:51.740Z,7.96
2018-04-07T22:33:19.426Z,7.65
2018-04-07T22:35:47.071Z,7.63
2018-04-07T22:38:14.758Z,7.47
2018-04-07T22:40:42.416Z,7.58
2018-04-07T22:43:10.203Z,7.59
2018-04-07T22:45:37.799Z,7.47
2018-04-07T22:48:05.449Z,7.73
2018-04-07T22:50:33.105Z,7.55
2018-04-07T22:53:00.754Z,7.49
2018-04-07T22:55:28.425Z,7.65
2018-04-07T22:57:56.138Z,7.72
2018-04-07T23:00:24.707Z,7.68
2018-04-07T23:02:52.447Z,7.77
2018-04-07T23:05:20.045Z,7.77
2018-04-07T23:07:47.731Z,7.42
2018-04-07T23:10:15.374Z,7.43
2018-04-07T23:12:43.037Z,7.62
2018-04-07T23:15:10.662Z,7.71
2018-04-07T23:17:38.325Z,7.70
2018-04-07T23:20:05.945Z,7.72
2018-04-07T23:22:33.597Z,7.39
2018-04-07T23:25:01.540Z,7.59
2018-04-07T23:27:29.892Z,7.66
2018-04-07T23:29:57.638Z,7.62
2018-04-07T23:32:25.239Z,7.44
2018-04-07T23:34:52.885Z,7.48
2018-04-07T23:37:20.545Z,7.25
2018-04-07T23:39:48.237Z,7.28
2018-04-07T23:42:15.887Z,7.54
2018-04-07T23:44:43.538Z,7.58
2018-04-07T23:47:11.168Z,7.66
2018-04-07T23:49:38.750Z,7.67
2018-04-07T23:52:06.384Z,7.75
2018-04-07T23:54:34.011Z,7.75
2018-04-07T23:57:01.663Z,7.55
2018-04-07T23:59:29.346Z,7.24
